KLVKKHWD

Guest
Details From KLVK - Livermore Muni
To KHWD - Hayward Executive
Flight Number -
Tags generated
Created
Modified
Stats Distance 17 nm / 31 km
Max Altitude 1,000 ft / 305 m
Waypoints 3
Social Downloads 1
Likes 0
Share VATSIM

Download

Looking for another format? Having issues loading an existing format? Contact us
Advertisement - Login to hide

Notes

Basic altitude profile: - Ascent Rate: 1000ft/min - Ascent Speed: 120kts - Cruise Altitude: 3000ft - Cruise Speed: 120kts - Descent Rate: 1500ft/min - Descent Speed: 120kts Options: - Use NATs: yes - Use PACOTS: yes - Use low airways: yes - Use high airways: yes

Route

KLVK DECOT KHWD

ID Type Via Altitude Latitude Longitude Leg Dist Tot Dist Heading (true) Name
O KLVK APT - 0 ft / 0 m 37.69318˚ -121.82037˚ - 0 nm - Livermore Muni
DECOT FIX - 1,000 ft / 305 m 37.60604˚ -122.04875˚ 12 nm 12 nm 244° / 244° -
O KHWD APT - 0 ft / 0 m 37.65925˚ -122.12193˚ 4 nm 16 nm 313° / 313° Hayward Executive

Altitude Profile

Advertisement - Login to hide

KLVK

Details ICAO KLVK (LVK)
Name Livermore Muni
Region United States
Timezone America/Los_Angeles (UTC-8.0)
Stats Elevation 400 ft / 122 m (AMSL)
Location 37.693179° -121.820375°
Runways 2
Magnetic Variation 13.394° E

METAR

KLVK 121853Z 24003KT 10SM CLR 13/01 A3031 RMK AO2 SLP263 T01330011

Decode

TAF

TAF KLVK 121720Z 1218/1318 VRB03KT P6SM SKC FM121900 07007KT P6SM SKC FM130400 VRB02KT P6SM SKC

Decode

Departure Runways

ID Width Length Bearing (true) Bearing (mag) Surface Threshold Offset Overrun Length
07L 98 ft / 30 m 5,241 ft / 1,598 m 90.57° 77.18° Asphalt 0 ft / 0 m 151 ft / 46 m
07R 75 ft / 23 m 2,694 ft / 821 m 90.58° 77.19° Asphalt 0 ft / 0 m 0 ft / 0 m
25L 75 ft / 23 m 2,694 ft / 821 m 270.59° 257.20° Asphalt 0 ft / 0 m 0 ft / 0 m
25R 98 ft / 30 m 5,241 ft / 1,598 m 270.58° 257.19° Asphalt 0 ft / 0 m 151 ft / 46 m

KHWD

Details ICAO KHWD (HWD)
Name Hayward Executive
Region United States
Timezone America/Los_Angeles (UTC-8.0)
Stats Elevation 52 ft / 16 m (AMSL)
Location 37.659252° -122.121935°
Runways 2
Magnetic Variation 13.434° E

METAR

KHWD 121854Z 29003KT 10SM CLR 13/03 A3031 RMK AO2 SLP274 T01330033

Decode

TAF

Not found

Destination Runways

ID Width Length Bearing (true) Bearing (mag) Surface Threshold Offset Overrun Length
10L 75 ft / 23 m 3,104 ft / 946 m 119.95° 106.52° Asphalt 0 ft / 0 m 0 ft / 0 m
10R 151 ft / 46 m 5,688 ft / 1,734 m 119.95° 106.52° Asphalt 817 ft / 249 m 0 ft / 0 m
28L 151 ft / 46 m 5,688 ft / 1,734 m 299.96° 286.53° Asphalt 676 ft / 206 m 0 ft / 0 m
28R 75 ft / 23 m 3,104 ft / 946 m 299.96° 286.53° Asphalt 0 ft / 0 m 0 ft / 0 m

Approach Navaids

Runway Type Ident Frequency Range Bearing (true) Bearing (mag) Slope Elevation
28L Localiser IHWD 111.50 MHz 18 nm / 33 km 302.00° 288.57° - 27 ft / 8 m (AMSL)
28L DME IHWD 111.50 MHz 18 nm / 33 km - - - 42 ft / 13 m (AMSL)

Popular Alternatives